Pagrindinis puslapis
METAR-TAF:

METAR-TAF

Oro uostai :

Kuparuk, Aliaska, Jungtinės Amerikos Valstijos

platuma: 70-19N, ilguma: 149-35W, Aukštis: 20 m

Dabartinis oras

Ataskaita buvo paskelbta 54 minutes, ne 20:45 UTC
Vėjas 8 kt iš Šiaurės Rytų
Temperatūra 3°C
Drėgmė 100%
Slėgis 998 hPa
Matomumas: 1.6 km
Apsiniaukę ne aukštis 300 ft
rūkana

METAR: PAKU 212045Z 04008KT 1SM R06/P6000FT BR OVC003 03/03 A2946

Laikas: 13:39 (21:39 UTC)


TAF: trūkstamas

Orai ataskaitas ir orų prognozės (METAR, TAF).

turimą stotys yra geltonos ir raudonos taškus žemėlapyje.

Perkelti pele per norėdami pamatyti stoties vardą.

Tada spustelėkite, norėdami matyti oro stebėjimo ir prognozės.

Norėdami pakeisti žemėlapį: spustelėkite ant žalios mygtukų su juodo kryžiaus žemyn,; žalią mygtuką su brūkšneliu, jei norite nutolinti; arba žalių rodyklių gretimoms žemėlapius.


METAR-TAF: